Flight Track Log - Related Links

Times and Time Zones

All times are in EDT time to prevent confusion due to time zone crossing. See the ASQ5738 flight status page for this flight to view local times or setup timezone preferences in your user account.

Time Position Orientation Groundspeed Altitude Reporting Facility
EDT Latitude Longitude Course Direction KTS MPH feet Rate Location/Type
Thu 10:11:03 AM 42.7503 -73.8283 220° Southwest 155 178 1,100  Level Boston Center
Thu 10:12:03 AM 42.7456 -73.8933 264° West 185 213 2,900 2,026 Climbing Boston Center
Thu 10:13:37 AM 42.7478 -74.0319 271° West 270 311 6,300 2,623 Climbing Boston Center
Thu 10:14:00 AM 42.7333 -74.2951 270° West  Level FlightAware
Thu 10:14:34 AM 42.7108 -74.1269 242° Southwest 268 308 9,500  Level Boston Center
Thu 10:15:00 AM 42.6723 -74.3834 220° Southwest  Level FlightAware
Thu 10:15:35 AM 42.6700 -74.2161 238° Southwest 268 308 11,500  Level Boston Center
Thu 10:16:00 AM 42.6022 -74.4622 220° Southwest  Level FlightAware
Thu 10:16:36 AM 42.6183 -74.3108 233° Southwest 303 349 12,800  Level Boston Center
Thu 10:17:37 AM 42.5892 -74.4311 252° West 323 372 14,000 1,361 Climbing Boston Center
Thu 10:18:35 AM 42.5639 -74.5600 255° West 355 409 15,500 1,373 Climbing Boston Center
Thu 10:19:35 AM 42.5431 -74.6775 257° West 360 414 16,700 1,140 Climbing Boston Center
Thu 10:20:36 AM 42.5194 -74.8119 257° West 360 414 17,800 1,190 Climbing Boston Center
Thu 10:21:36 AM 42.4978 -74.9436 257° West 360 414 19,100 1,190 Climbing Boston Center
Thu 10:22:37 AM 42.4761 -75.0806 258° West 371 427 20,200 1,091 Climbing Boston Center
Thu 10:23:37 AM 42.4228 -75.2133 241° Southwest 371 427 21,300 1,068 Climbing Boston Center
Thu 10:24:35 AM 42.3617 -75.3231 233° Southwest 366 421 22,300 1,119 Climbing Boston Center
Thu 10:25:35 AM 42.3044 -75.4383 236° Southwest 373 429 23,500 1,116 Climbing Boston Center
Thu 10:27:27 AM 42.1983 -75.6358 234° Southwest 363 418 25,500 872 Climbing New Center
Thu 10:28:27 AM 42.1375 -75.7489 234° Southwest 368 423 26,000 250 Climbing New Center
Thu 10:29:27 AM 42.0786 -75.8644 236° Southwest 374 430 26,000  Level New Center
Thu 10:30:27 AM 42.0169 -75.9853 236° Southwest 384 442 26,000  Level New Center
Thu 10:31:27 AM 41.9533 -76.1058 235° Southwest 394 453 26,000  Level New Center
Thu 10:32:27 AM 41.8872 -76.2314 235° Southwest 407 468 26,000  Level New Center
Thu 10:33:26 AM 41.8214 -76.3542 234° Southwest 413 475 26,000  Level New Center
Thu 10:34:27 AM 41.7550 -76.4792 235° Southwest 413 475 26,000  Level New Center
Thu 10:35:27 AM 41.6864 -76.6039 234° Southwest 413 475 26,000  Level New Center
Thu 10:36:27 AM 41.6111 -76.7361 233° Southwest 413 475 26,000  Level New Center
Thu 10:37:27 AM 41.5442 -76.8658 235° Southwest 413 475 26,000  Level New Center
Thu 10:38:27 AM 41.4772 -76.9900 234° Southwest 418 481 26,000  Level New Center
Thu 10:39:27 AM 41.4036 -77.1217 233° Southwest 425 489 26,000 -150 Level New Center
Thu 10:40:27 AM 41.3083 -77.1900 208° Southwest 409 471 25,700 -650 Descending New Center
Thu 10:41:27 AM 41.1894 -77.1925 181° South 401 461 24,700 -1,000 Descending New Center
Thu 10:42:27 AM 41.0706 -77.1950 181° South 406 467 23,700 -1,008 Descending New Center
Thu 10:43:26 AM 40.9472 -77.1997 182° South 435 501 22,700 -1,000 Descending New Center
Thu 10:44:27 AM 40.8261 -77.2022 181° South 440 506 21,700 -843 Descending New Center
Thu 10:45:27 AM 40.7075 -77.2019 180° South 440 506 21,000 -800 Descending New Center
Thu 10:46:27 AM 40.5906 -77.2075 182° South 435 501 20,100 -850 Descending New Center
Thu 10:47:27 AM 40.4986 -77.2097 181° South 425 489 19,300 -982 Descending New Center
Thu 10:49:12 AM 40.2833 -77.2167 181° South 397 457 17,400 -1,055 Descending Potomac TRACON
Thu 10:50:12 AM 40.1833 -77.2167 180° South 385 443 16,400 -1,000 Descending Potomac TRACON
Thu 10:51:12 AM 40.0833 -77.2167 180° South 336 387 15,400 -1,000 Descending Potomac TRACON
Thu 10:52:12 AM 39.9833 -77.2167 180° South 344 396 14,400 -1,150 Descending Potomac TRACON
Thu 10:53:12 AM 39.9000 -77.2333 189° South 321 369 13,100 -1,300 Descending Potomac TRACON
Thu 10:54:12 AM 39.8167 -77.2667 197° South 294 338 11,800 -1,250 Descending Potomac TRACON
Thu 10:55:12 AM 39.7333 -77.3000 197° South 299 344 10,600 -900 Descending Potomac TRACON
Thu 10:56:12 AM 39.6667 -77.3333 201° Southwest 304 350 10,000 -850 Descending Potomac TRACON
Thu 10:57:12 AM 39.5833 -77.3333 180° South 286 329 8,900 -1,316 Descending Potomac TRACON
Thu 10:58:06 AM 39.5000 -77.3333 180° South 292 336 7,500 -1,513 Descending Potomac TRACON
Thu 10:59:07 AM 39.4333 -77.3333 180° South 284 327 6,000 -744 Descending Potomac TRACON
Thu 11:00:07 AM 39.3500 -77.3500 189° South 288 331 6,000 -200 Level Potomac TRACON
Thu 11:01:07 AM 39.2667 -77.3500 180° South 280 322 5,600 -500 Descending Potomac TRACON
Thu 11:02:07 AM 39.1833 -77.3500 180° South 278 320 5,000 -496 Descending Potomac TRACON
Thu 11:03:08 AM 39.1167 -77.3500 180° South 276 318 4,600 -496 Descending Potomac TRACON
Thu 11:04:08 AM 39.0333 -77.3500 180° South 276 318 4,000 -632 Descending Potomac TRACON
Thu 11:05:02 AM 38.9667 -77.3500 180° South 280 322 3,400 -526 Descending Potomac TRACON
Thu 11:06:02 AM 38.8833 -77.3500 180° South 270 311 3,000 -450 Descending Potomac TRACON
Thu 11:07:02 AM 38.8167 -77.3667 191° South 242 278 2,500 -500 Descending Potomac TRACON
Thu 11:08:02 AM 38.8000 -77.4167 247° West 233 268 2,000 -300 Descending Potomac TRACON
Thu 11:09:02 AM 38.8500 -77.4333 345° North 176 203 1,900 -470 Descending Potomac TRACON
Thu 11:09:57 AM 38.8833 -77.4333 360° North 144 166 1,100 -873 Descending Potomac TRACON

Login

Don't have an account? Register now (free) for customized features, flight alerts, and more!